Loreto International Airport
MMLT : now visible

Airfield :











YOU CAN JOIN US ON...

 
LOGIN :

Register | Disclaimer

   EN    FR    IT 

 









Legend :    VFR   Marginal VFR   IFR   Intensive IFR   Very Intensive IFR
Visi :
Ceiling :
>= 8 km
>= 3000ft
5 to 8 km
1000 to 3000 ft
1500m to 5 km
500 to 1000 ft
800 to 1500m
200 to 500 ft
< 800m
< 200 ft
Symbols :   Thunderstorms  Fog  Heavy snow  Heavy precipitations  Wind > 20 kt






- Airport Elevation : 34 ft
- IATA code : LTO


MMLT - Loreto International

CURRENT METAR :
  • 242340Z 16010KT 8SM FEW040 BKN240 33/25 A2991 RMK SLP129 8/402 HZY

EXPIRED METARs :
  • 242240Z 14010KT 8SM FEW040CB BKN240 33/24 A2993 RMK 8/302 HZY
  • 242140Z 16010KT 8SM FEW040CB BKN240 34/23 A2994 RMK 8/302 HZY
  • 242040Z 16010KT 8SM FEW040CB BKN240 34/24 A2995 RMK SLP142 8/306 HZY CB W
  • 241947Z 14012KT 8SM FEW020 BKN200 32/24 A2996 RMK 8/308 HZY

TAF TAF MMLT
Valid from the 24 at 18:00 until the 25 at 18:00 UTC


241648Z 2418/2518 16010KT P6SM SCT030
FM250600 12010KT P6SM SCT100
MMFR FIR / North America



MET'MAP, your aeronautical weather chart ! - Copyright ORBIFLY December 2007 - Disclaimer

ORBIFLY MET'MAP TEAM :

Programming & Development : Alexandra Zaïnal
Original concept : Baudouin d'Aumeries
Technical & hardware support : Manuel Goepfert
Assistance : Marc-Olivier Méhu




SOURCES & CREDITS :

   NOAA       Earth
Advisory